Airfield :
LOGIN :

Register | Disclaimer

   EN    FR    IT 

 










Legend :    VFR   Marginal VFR   IFR   Intensive IFR   Very Intensive IFR
Visi :
Ceiling :
>= 8 km
>= 3000ft
5 to 8 km
1000 to 3000 ft
1500m to 5 km
500 to 1000 ft
800 to 1500m
200 to 500 ft
< 800m
< 200 ft
Symbols :   Thunderstorms  Fog  Heavy snow  Heavy precipitations  Wind > 20 kt
SIGMETs :     Misc.  Thunderstorms  Icing  Turbulence  Mountain Waves  Volcanic Ashes







- Airport Elevation : 247 ft
- IATA code : BLL


EKBI - Billund

CURRENT METAR :
  • 161550Z AUTO 23005KT 9999NDV BKN014/// 14/12 Q1018

EXPIRED METARs :
  • 161520Z AUTO 22007KT 9999NDV OVC014/// 14/12 Q1018
  • 161450Z AUTO 23005KT 200V260 9999NDV OVC013/// 14/12 Q1018
  • 161420Z AUTO 22006KT 9000NDV OVC013/// 15/12 Q1018
  • 161350Z AUTO 22006KT 9000NDV OVC013/// 15/12 Q1017

TAF AMD TAF EKBI
Valid from the 16 at 12:00 until the 17 at 12:00 UTC


161221Z 1612/1712 19008KT 6000 SCT020
TEMPO 1612/1617 4000 BR BKN006
BECMG 1617/1619 2500 BR
TEMPO 1619/1703 1200 BCFG BKN002
TEMPO 1703/1707 4000
BECMG 1707/1709 9999 NSW
No reported NOTAMs for that airfield.



MET'MAP, your aeronautical weather chart ! - Copyright ORBIFLY December 2007 - Disclaimer

ORBIFLY MET'MAP TEAM :

Programming & Development : Alexandra Zaïnal
Concept & Development : Baudouin d'Aumeries
Co-Development & Prog : Marc-Olivier Méhu
Technical & hardware support : Manuel Goepfert

Contact : metmap@orbifly.com




SOURCES & CREDITS :

   NOAA